sensor_id;sensor_type;location;lat;lon;timestamp;temperature;humidity
4293;DHT22;2160;51.172;6.808;2022-07-29T04:02:42;20.80;99.90
4293;DHT22;2160;51.172;6.808;2022-07-29T04:05:12;20.70;99.90
4293;DHT22;2160;51.172;6.808;2022-07-29T04:07:39;20.70;99.90
4293;DHT22;2160;51.172;6.808;2022-07-29T04:10:07;20.80;99.90
4293;DHT22;2160;51.172;6.808;2022-07-29T04:12:34;20.80;99.90
4293;DHT22;2160;51.172;6.808;2022-07-29T04:15:01;20.70;99.90
4293;DHT22;2160;51.172;6.808;2022-07-29T04:17:28;20.60;99.90
4293;DHT22;2160;51.172;6.808;2022-07-29T04:19:57;20.50;99.90
4293;DHT22;2160;51.172;6.808;2022-07-29T04:22:24;20.40;99.90
4293;DHT22;2160;51.172;6.808;2022-07-29T04:24:51;20.40;99.90
4293;DHT22;2160;51.172;6.808;2022-07-29T04:27:18;20.40;99.90
4293;DHT22;2160;51.172;6.808;2022-07-29T04:29:44;20.50;99.90
4293;DHT22;2160;51.172;6.808;2022-07-29T04:32:11;20.60;99.90
4293;DHT22;2160;51.172;6.808;2022-07-29T04:34:38;20.70;99.90
4293;DHT22;2160;51.172;6.808;2022-07-29T04:37:07;20.50;99.90
4293;DHT22;2160;51.172;6.808;2022-07-29T04:39:34;20.50;99.90
4293;DHT22;2160;51.172;6.808;2022-07-29T04:42:01;20.40;99.90
4293;DHT22;2160;51.172;6.808;2022-07-29T04:44:28;20.20;99.90
4293;DHT22;2160;51.172;6.808;2022-07-29T04:46:56;20.20;99.90
4293;DHT22;2160;51.172;6.808;2022-07-29T04:49:23;20.30;99.90
4293;DHT22;2160;51.172;6.808;2022-07-29T04:51:50;20.10;99.90
4293;DHT22;2160;51.172;6.808;2022-07-29T04:54:18;20.20;99.90
4293;DHT22;2160;51.172;6.808;2022-07-29T04:56:45;20.10;99.90
4293;DHT22;2160;51.172;6.808;2022-07-29T04:59:12;20.00;99.90
4293;DHT22;2160;51.172;6.808;2022-07-29T05:01:39;20.00;99.90
4293;DHT22;2160;51.172;6.808;2022-07-29T05:04:06;20.00;99.90
4293;DHT22;2160;51.172;6.808;2022-07-29T05:06:33;20.00;99.90
4293;DHT22;2160;51.172;6.808;2022-07-29T05:09:00;20.00;99.90
4293;DHT22;2160;51.172;6.808;2022-07-29T05:11:28;20.00;99.90
4293;DHT22;2160;51.172;6.808;2022-07-29T05:13:55;20.10;99.90
4293;DHT22;2160;51.172;6.808;2022-07-29T05:16:22;20.30;99.90
4293;DHT22;2160;51.172;6.808;2022-07-29T05:18:50;20.30;99.90
4293;DHT22;2160;51.172;6.808;2022-07-29T05:21:17;20.30;99.90
4293;DHT22;2160;51.172;6.808;2022-07-29T05:23:44;20.50;99.90
4293;DHT22;2160;51.172;6.808;2022-07-29T05:26:11;20.70;99.90
4293;DHT22;2160;51.172;6.808;2022-07-29T05:28:40;20.70;99.90
4293;DHT22;2160;51.172;6.808;2022-07-29T05:31:07;20.70;99.90
4293;DHT22;2160;51.172;6.808;2022-07-29T05:33:34;20.60;99.90
4293;DHT22;2160;51.172;6.808;2022-07-29T05:36:01;20.70;99.90
4293;DHT22;2160;51.172;6.808;2022-07-29T05:38:31;20.70;99.90
4293;DHT22;2160;51.172;6.808;2022-07-29T05:40:58;20.80;99.90
4293;DHT22;2160;51.172;6.808;2022-07-29T05:43:25;20.80;99.90
4293;DHT22;2160;51.172;6.808;2022-07-29T05:45:56;20.90;99.90
4293;DHT22;2160;51.172;6.808;2022-07-29T05:48:23;20.80;99.90
4293;DHT22;2160;51.172;6.808;2022-07-29T05:50:51;20.80;99.90
4293;DHT22;2160;51.172;6.808;2022-07-29T05:53:18;20.80;99.90
4293;DHT22;2160;51.172;6.808;2022-07-29T05:55:48;20.80;99.90
4293;DHT22;2160;51.172;6.808;2022-07-29T05:58:16;21.00;99.90
4293;DHT22;2160;51.172;6.808;2022-07-29T06:00:46;21.10;99.90
4293;DHT22;2160;51.172;6.808;2022-07-29T06:03:17;21.20;99.90
4293;DHT22;2160;51.172;6.808;2022-07-29T06:05:44;21.20;99.90
4293;DHT22;2160;51.172;6.808;2022-07-29T06:08:11;21.10;99.90
4293;DHT22;2160;51.172;6.808;2022-07-29T06:10:43;21.10;99.90
4293;DHT22;2160;51.172;6.808;2022-07-29T06:13:12;21.10;99.90
4293;DHT22;2160;51.172;6.808;2022-07-29T06:15:41;21.20;99.90
4293;DHT22;2160;51.172;6.808;2022-07-29T06:18:09;21.30;99.90
4293;DHT22;2160;51.172;6.808;2022-07-29T06:20:38;21.50;99.90
4293;DHT22;2160;51.172;6.808;2022-07-29T06:23:05;21.50;99.90
4293;DHT22;2160;51.172;6.808;2022-07-29T06:25:33;21.40;99.90
4293;DHT22;2160;51.172;6.808;2022-07-29T06:28:02;21.40;99.90
4293;DHT22;2160;51.172;6.808;2022-07-29T06:30:32;21.30;99.90
4293;DHT22;2160;51.172;6.808;2022-07-29T06:33:02;21.40;99.90
4293;DHT22;2160;51.172;6.808;2022-07-29T06:35:30;21.40;99.90
4293;DHT22;2160;51.172;6.808;2022-07-29T06:37:59;21.40;99.90
4293;DHT22;2160;51.172;6.808;2022-07-29T06:40:26;21.40;99.90
4293;DHT22;2160;51.172;6.808;2022-07-29T06:43:10;21.30;99.90
4293;DHT22;2160;51.172;6.808;2022-07-29T06:45:37;21.30;99.90
4293;DHT22;2160;51.172;6.808;2022-07-29T06:48:06;21.30;99.90
4293;DHT22;2160;51.172;6.808;2022-07-29T06:50:34;21.40;99.90
4293;DHT22;2160;51.172;6.808;2022-07-29T06:53:03;21.40;99.90
4293;DHT22;2160;51.172;6.808;2022-07-29T06:55:30;21.50;99.90
4293;DHT22;2160;51.172;6.808;2022-07-29T06:57:57;21.50;99.90
4293;DHT22;2160;51.172;6.808;2022-07-29T07:00:27;21.50;99.90
4293;DHT22;2160;51.172;6.808;2022-07-29T07:02:57;21.40;99.90
4293;DHT22;2160;51.172;6.808;2022-07-29T07:05:27;21.50;99.90
4293;DHT22;2160;51.172;6.808;2022-07-29T07:07:54;21.60;99.90
4293;DHT22;2160;51.172;6.808;2022-07-29T07:10:24;21.60;99.90
4293;DHT22;2160;51.172;6.808;2022-07-29T07:12:51;21.60;99.90
4293;DHT22;2160;51.172;6.808;2022-07-29T07:15:20;21.60;99.90
4293;DHT22;2160;51.172;6.808;2022-07-29T07:17:48;21.60;99.90
4293;DHT22;2160;51.172;6.808;2022-07-29T07:20:16;21.70;99.90
4293;DHT22;2160;51.172;6.808;2022-07-29T07:22:43;21.60;99.90
4293;DHT22;2160;51.172;6.808;2022-07-29T07:25:11;21.70;99.90
4293;DHT22;2160;51.172;6.808;2022-07-29T07:27:41;21.80;99.90
4293;DHT22;2160;51.172;6.808;2022-07-29T07:30:12;21.90;99.90
4293;DHT22;2160;51.172;6.808;2022-07-29T07:32:42;22.10;99.90
4293;DHT22;2160;51.172;6.808;2022-07-29T07:35:10;22.10;99.90
4293;DHT22;2160;51.172;6.808;2022-07-29T07:37:38;22.00;99.90
4293;DHT22;2160;51.172;6.808;2022-07-29T07:40:07;21.90;99.90
4293;DHT22;2160;51.172;6.808;2022-07-29T07:42:34;21.70;99.90
4293;DHT22;2160;51.172;6.808;2022-07-29T07:45:03;21.60;99.90
4293;DHT22;2160;51.172;6.808;2022-07-29T07:47:30;21.70;99.90
4293;DHT22;2160;51.172;6.808;2022-07-29T07:49:57;21.80;99.90
4293;DHT22;2160;51.172;6.808;2022-07-29T07:52:24;21.90;99.90
4293;DHT22;2160;51.172;6.808;2022-07-29T07:54:51;22.00;99.90
4293;DHT22;2160;51.172;6.808;2022-07-29T07:57:18;21.90;99.90
4293;DHT22;2160;51.172;6.808;2022-07-29T07:59:45;21.90;99.90
4293;DHT22;2160;51.172;6.808;2022-07-29T08:02:13;22.00;99.90
4293;DHT22;2160;51.172;6.808;2022-07-29T08:04:40;22.10;99.90
4293;DHT22;2160;51.172;6.808;2022-07-29T08:07:08;22.10;99.90
4293;DHT22;2160;51.172;6.808;2022-07-29T08:09:35;22.00;99.90
4293;DHT22;2160;51.172;6.808;2022-07-29T08:12:03;21.80;99.90
4293;DHT22;2160;51.172;6.808;2022-07-29T08:14:31;21.80;99.90
4293;DHT22;2160;51.172;6.808;2022-07-29T08:16:58;21.80;99.90
4293;DHT22;2160;51.172;6.808;2022-07-29T08:19:30;21.80;99.90
4293;DHT22;2160;51.172;6.808;2022-07-29T08:21:57;22.00;99.90
4293;DHT22;2160;51.172;6.808;2022-07-29T08:24:25;22.10;99.90
4293;DHT22;2160;51.172;6.808;2022-07-29T08:27:18;22.10;99.90
4293;DHT22;2160;51.172;6.808;2022-07-29T08:29:49;22.10;99.90
4293;DHT22;2160;51.172;6.808;2022-07-29T08:32:16;22.10;99.90
4293;DHT22;2160;51.172;6.808;2022-07-29T08:34:48;22.30;99.90
4293;DHT22;2160;51.172;6.808;2022-07-29T08:37:16;22.30;99.90
4293;DHT22;2160;51.172;6.808;2022-07-29T08:39:46;22.40;99.90
4293;DHT22;2160;51.172;6.808;2022-07-29T08:42:17;22.40;99.90
4293;DHT22;2160;51.172;6.808;2022-07-29T08:59:22;21.80;99.90
4293;DHT22;2160;51.172;6.808;2022-07-29T09:01:53;22.00;99.90
4293;DHT22;2160;51.172;6.808;2022-07-29T09:04:21;22.10;99.90
4293;DHT22;2160;51.172;6.808;2022-07-29T09:06:51;22.20;99.90
4293;DHT22;2160;51.172;6.808;2022-07-29T09:09:20;22.30;99.90
4293;DHT22;2160;51.172;6.808;2022-07-29T09:11:47;22.30;99.90
4293;DHT22;2160;51.172;6.808;2022-07-29T09:14:14;22.40;99.90
4293;DHT22;2160;51.172;6.808;2022-07-29T09:16:51;22.50;99.90
4293;DHT22;2160;51.172;6.808;2022-07-29T09:19:20;22.50;99.90
4293;DHT22;2160;51.172;6.808;2022-07-29T09:21:47;22.50;99.90
4293;DHT22;2160;51.172;6.808;2022-07-29T09:24:37;22.60;99.90
4293;DHT22;2160;51.172;6.808;2022-07-29T09:27:09;22.60;99.90
4293;DHT22;2160;51.172;6.808;2022-07-29T09:29:37;22.40;99.90
4293;DHT22;2160;51.172;6.808;2022-07-29T09:32:09;22.30;99.90
4293;DHT22;2160;51.172;6.808;2022-07-29T09:34:37;22.40;99.90
4293;DHT22;2160;51.172;6.808;2022-07-29T09:37:04;22.60;99.90
4293;DHT22;2160;51.172;6.808;2022-07-29T09:39:33;22.70;99.90
4293;DHT22;2160;51.172;6.808;2022-07-29T09:42:02;22.70;99.90
4293;DHT22;2160;51.172;6.808;2022-07-29T09:44:41;22.80;99.90
4293;DHT22;2160;51.172;6.808;2022-07-29T09:47:10;22.90;99.90
4293;DHT22;2160;51.172;6.808;2022-07-29T09:49:51;22.80;99.90
4293;DHT22;2160;51.172;6.808;2022-07-29T09:52:19;22.80;99.90
4293;DHT22;2160;51.172;6.808;2022-07-29T09:54:46;22.90;99.90
4293;DHT22;2160;51.172;6.808;2022-07-29T09:57:25;22.80;99.90
4293;DHT22;2160;51.172;6.808;2022-07-29T10:00:00;22.70;99.90
4293;DHT22;2160;51.172;6.808;2022-07-29T10:02:40;22.70;99.90
4293;DHT22;2160;51.172;6.808;2022-07-29T10:05:17;22.80;99.90
4293;DHT22;2160;51.172;6.808;2022-07-29T10:07:45;22.80;99.90
4293;DHT22;2160;51.172;6.808;2022-07-29T10:10:20;22.80;99.90
4293;DHT22;2160;51.172;6.808;2022-07-29T10:12:55;22.70;99.90
4293;DHT22;2160;51.172;6.808;2022-07-29T10:15:23;22.60;99.90
4293;DHT22;2160;51.172;6.808;2022-07-29T10:17:53;22.50;99.90
4293;DHT22;2160;51.172;6.808;2022-07-29T10:20:21;22.40;99.90
4293;DHT22;2160;51.172;6.808;2022-07-29T10:22:49;22.50;99.90
4293;DHT22;2160;51.172;6.808;2022-07-29T10:25:17;22.50;99.90
4293;DHT22;2160;51.172;6.808;2022-07-29T10:27:45;22.60;99.90
4293;DHT22;2160;51.172;6.808;2022-07-29T10:30:13;22.70;99.90
4293;DHT22;2160;51.172;6.808;2022-07-29T10:32:57;22.70;99.90
4293;DHT22;2160;51.172;6.808;2022-07-29T10:35:39;22.50;99.90
4293;DHT22;2160;51.172;6.808;2022-07-29T10:38:37;22.50;99.90
4293;DHT22;2160;51.172;6.808;2022-07-29T10:41:17;22.50;99.90
4293;DHT22;2160;51.172;6.808;2022-07-29T10:43:56;22.60;99.90
4293;DHT22;2160;51.172;6.808;2022-07-29T10:46:25;22.70;99.90
4293;DHT22;2160;51.172;6.808;2022-07-29T10:49:07;23.00;99.90
4293;DHT22;2160;51.172;6.808;2022-07-29T10:51:54;23.20;99.90
4293;DHT22;2160;51.172;6.808;2022-07-29T10:54:39;23.30;99.90
4293;DHT22;2160;51.172;6.808;2022-07-29T10:57:19;23.40;99.90
4293;DHT22;2160;51.172;6.808;2022-07-29T10:59:48;23.40;99.90
4293;DHT22;2160;51.172;6.808;2022-07-29T11:02:41;23.50;99.90
4293;DHT22;2160;51.172;6.808;2022-07-29T11:05:11;23.40;99.90
4293;DHT22;2160;51.172;6.808;2022-07-29T11:07:40;23.40;99.90
4293;DHT22;2160;51.172;6.808;2022-07-29T11:10:26;23.40;99.90
4293;DHT22;2160;51.172;6.808;2022-07-29T11:12:53;23.70;99.90
4293;DHT22;2160;51.172;6.808;2022-07-29T11:15:21;23.90;99.90
4293;DHT22;2160;51.172;6.808;2022-07-29T11:18:08;24.00;99.90
4293;DHT22;2160;51.172;6.808;2022-07-29T11:20:39;24.20;99.90
4293;DHT22;2160;51.172;6.808;2022-07-29T11:23:20;24.20;99.90
4293;DHT22;2160;51.172;6.808;2022-07-29T11:26:13;24.30;99.90
4293;DHT22;2160;51.172;6.808;2022-07-29T11:28:53;24.70;99.90
4293;DHT22;2160;51.172;6.808;2022-07-29T11:31:33;25.00;99.90
4293;DHT22;2160;51.172;6.808;2022-07-29T11:34:18;25.30;99.90
4293;DHT22;2160;51.172;6.808;2022-07-29T11:37:15;25.60;99.90
4293;DHT22;2160;51.172;6.808;2022-07-29T11:39:43;25.50;99.90
4293;DHT22;2160;51.172;6.808;2022-07-29T11:42:37;25.70;99.90
4293;DHT22;2160;51.172;6.808;2022-07-29T11:45:06;26.00;97.70
4293;DHT22;2160;51.172;6.808;2022-07-29T11:47:36;26.00;96.10
4293;DHT22;2160;51.172;6.808;2022-07-29T11:50:05;26.10;97.30
4293;DHT22;2160;51.172;6.808;2022-07-29T11:52:35;26.20;96.10
4293;DHT22;2160;51.172;6.808;2022-07-29T11:55:04;26.40;94.80
4293;DHT22;2160;51.172;6.808;2022-07-29T11:57:34;26.40;93.10
4293;DHT22;2160;51.172;6.808;2022-07-29T12:00:03;26.60;92.20
4293;DHT22;2160;51.172;6.808;2022-07-29T12:02:38;26.50;90.20
4293;DHT22;2160;51.172;6.808;2022-07-29T12:05:08;26.60;90.80
4293;DHT22;2160;51.172;6.808;2022-07-29T12:07:37;26.80;89.90
4293;DHT22;2160;51.172;6.808;2022-07-29T12:10:05;26.90;91.10
4293;DHT22;2160;51.172;6.808;2022-07-29T12:12:33;27.10;90.60
4293;DHT22;2160;51.172;6.808;2022-07-29T12:15:13;27.10;88.50
4293;DHT22;2160;51.172;6.808;2022-07-29T12:17:42;27.10;91.40
4293;DHT22;2160;51.172;6.808;2022-07-29T12:20:09;26.80;94.10
4293;DHT22;2160;51.172;6.808;2022-07-29T12:22:40;26.80;94.10
4293;DHT22;2160;51.172;6.808;2022-07-29T12:25:09;26.80;96.00
4293;DHT22;2160;51.172;6.808;2022-07-29T12:27:37;26.90;96.70
4293;DHT22;2160;51.172;6.808;2022-07-29T12:30:06;27.10;96.50
4293;DHT22;2160;51.172;6.808;2022-07-29T12:32:34;27.00;95.70
4293;DHT22;2160;51.172;6.808;2022-07-29T12:35:05;27.00;96.60
4293;DHT22;2160;51.172;6.808;2022-07-29T12:37:34;27.40;95.50
4293;DHT22;2160;51.172;6.808;2022-07-29T12:40:05;27.60;93.70
4293;DHT22;2160;51.172;6.808;2022-07-29T12:42:33;27.40;93.20
4293;DHT22;2160;51.172;6.808;2022-07-29T12:45:00;27.40;94.20
4293;DHT22;2160;51.172;6.808;2022-07-29T12:47:28;27.50;93.80
4293;DHT22;2160;51.172;6.808;2022-07-29T12:50:08;27.40;91.70
4293;DHT22;2160;51.172;6.808;2022-07-29T12:52:35;27.30;93.60
4293;DHT22;2160;51.172;6.808;2022-07-29T12:55:04;27.40;90.80
4293;DHT22;2160;51.172;6.808;2022-07-29T12:57:35;27.50;90.60
4293;DHT22;2160;51.172;6.808;2022-07-29T13:00:12;27.50;91.50
4293;DHT22;2160;51.172;6.808;2022-07-29T13:02:40;27.40;91.90
4293;DHT22;2160;51.172;6.808;2022-07-29T13:05:09;27.30;91.30
4293;DHT22;2160;51.172;6.808;2022-07-29T13:07:38;27.30;92.60
4293;DHT22;2160;51.172;6.808;2022-07-29T13:10:14;27.40;92.90
4293;DHT22;2160;51.172;6.808;2022-07-29T13:13:01;27.50;92.20
4293;DHT22;2160;51.172;6.808;2022-07-29T13:15:28;27.80;91.80
4293;DHT22;2160;51.172;6.808;2022-07-29T13:17:55;28.00;90.50
4293;DHT22;2160;51.172;6.808;2022-07-29T13:20:24;28.00;90.20
4293;DHT22;2160;51.172;6.808;2022-07-29T13:22:53;28.10;91.70
4293;DHT22;2160;51.172;6.808;2022-07-29T13:25:26;28.20;91.50
4293;DHT22;2160;51.172;6.808;2022-07-29T13:27:54;28.10;87.90
4293;DHT22;2160;51.172;6.808;2022-07-29T13:30:21;28.20;88.30
4293;DHT22;2160;51.172;6.808;2022-07-29T13:32:49;28.10;88.70
4293;DHT22;2160;51.172;6.808;2022-07-29T13:35:16;28.40;86.40
4293;DHT22;2160;51.172;6.808;2022-07-29T13:37:43;28.50;85.50
4293;DHT22;2160;51.172;6.808;2022-07-29T13:40:11;28.40;87.30
4293;DHT22;2160;51.172;6.808;2022-07-29T13:42:41;28.50;88.90
4293;DHT22;2160;51.172;6.808;2022-07-29T13:45:09;28.60;87.40
4293;DHT22;2160;51.172;6.808;2022-07-29T13:47:36;28.50;86.80
4293;DHT22;2160;51.172;6.808;2022-07-29T13:50:05;28.70;85.70
4293;DHT22;2160;51.172;6.808;2022-07-29T13:52:32;28.70;85.90
4293;DHT22;2160;51.172;6.808;2022-07-29T13:55:00;28.80;85.90
4293;DHT22;2160;51.172;6.808;2022-07-29T13:57:27;28.70;85.70
4293;DHT22;2160;51.172;6.808;2022-07-29T13:59:56;28.70;85.20
4293;DHT22;2160;51.172;6.808;2022-07-29T14:02:23;28.60;86.20
4293;DHT22;2160;51.172;6.808;2022-07-29T14:04:50;28.50;85.40
4293;DHT22;2160;51.172;6.808;2022-07-29T14:07:17;28.70;85.60
4293;DHT22;2160;51.172;6.808;2022-07-29T14:09:44;29.00;84.70
4293;DHT22;2160;51.172;6.808;2022-07-29T14:12:11;29.20;82.70
4293;DHT22;2160;51.172;6.808;2022-07-29T14:14:38;29.20;82.10
4293;DHT22;2160;51.172;6.808;2022-07-29T14:17:06;29.30;77.80
4293;DHT22;2160;51.172;6.808;2022-07-29T14:19:34;29.40;78.70
4293;DHT22;2160;51.172;6.808;2022-07-29T14:22:03;29.40;79.40
4293;DHT22;2160;51.172;6.808;2022-07-29T14:24:31;29.50;78.20
4293;DHT22;2160;51.172;6.808;2022-07-29T14:26:58;29.60;78.80
4293;DHT22;2160;51.172;6.808;2022-07-29T14:29:25;29.70;75.30
4293;DHT22;2160;51.172;6.808;2022-07-29T14:31:52;29.60;75.10
4293;DHT22;2160;51.172;6.808;2022-07-29T14:34:20;29.50;77.50
4293;DHT22;2160;51.172;6.808;2022-07-29T14:36:47;29.40;75.90
4293;DHT22;2160;51.172;6.808;2022-07-29T14:39:14;29.50;75.90
4293;DHT22;2160;51.172;6.808;2022-07-29T14:41:42;29.60;74.80
4293;DHT22;2160;51.172;6.808;2022-07-29T14:44:09;29.60;74.40
4293;DHT22;2160;51.172;6.808;2022-07-29T14:46:36;29.60;73.90
4293;DHT22;2160;51.172;6.808;2022-07-29T14:49:03;29.60;74.30
4293;DHT22;2160;51.172;6.808;2022-07-29T14:51:32;29.70;71.10
4293;DHT22;2160;51.172;6.808;2022-07-29T14:53:59;29.90;71.00
4293;DHT22;2160;51.172;6.808;2022-07-29T14:56:26;30.00;70.60
4293;DHT22;2160;51.172;6.808;2022-07-29T14:58:55;30.10;68.40
4293;DHT22;2160;51.172;6.808;2022-07-29T15:01:23;30.10;67.50
4293;DHT22;2160;51.172;6.808;2022-07-29T15:03:50;30.00;67.80
4293;DHT22;2160;51.172;6.808;2022-07-29T15:06:17;29.80;66.30
4293;DHT22;2160;51.172;6.808;2022-07-29T15:08:45;29.60;69.10
4293;DHT22;2160;51.172;6.808;2022-07-29T15:11:12;29.60;67.40
4293;DHT22;2160;51.172;6.808;2022-07-29T15:13:39;29.40;64.40
4293;DHT22;2160;51.172;6.808;2022-07-29T15:16:06;29.60;66.50
4293;DHT22;2160;51.172;6.808;2022-07-29T15:18:33;29.50;63.90
4293;DHT22;2160;51.172;6.808;2022-07-29T15:21:00;29.30;64.20
4293;DHT22;2160;51.172;6.808;2022-07-29T15:23:27;29.20;63.60
4293;DHT22;2160;51.172;6.808;2022-07-29T15:25:56;29.00;64.70
4293;DHT22;2160;51.172;6.808;2022-07-29T15:28:23;28.90;64.20
4293;DHT22;2160;51.172;6.808;2022-07-29T15:30:50;28.60;63.70
4293;DHT22;2160;51.172;6.808;2022-07-29T15:33:16;28.60;65.30
4293;DHT22;2160;51.172;6.808;2022-07-29T15:35:43;28.60;65.10
4293;DHT22;2160;51.172;6.808;2022-07-29T15:38:10;28.60;63.80
4293;DHT22;2160;51.172;6.808;2022-07-29T15:40:38;28.60;63.00
4293;DHT22;2160;51.172;6.808;2022-07-29T15:43:08;28.60;61.30
4293;DHT22;2160;51.172;6.808;2022-07-29T15:45:36;28.60;62.80
4293;DHT22;2160;51.172;6.808;2022-07-29T15:48:05;28.50;62.70
4293;DHT22;2160;51.172;6.808;2022-07-29T15:50:33;28.50;65.00
4293;DHT22;2160;51.172;6.808;2022-07-29T15:53:00;28.70;63.50
4293;DHT22;2160;51.172;6.808;2022-07-29T15:55:27;28.80;64.00
4293;DHT22;2160;51.172;6.808;2022-07-29T15:57:54;28.80;62.40
4293;DHT22;2160;51.172;6.808;2022-07-29T16:00:22;28.90;61.00
4293;DHT22;2160;51.172;6.808;2022-07-29T16:02:49;29.00;59.90
4293;DHT22;2160;51.172;6.808;2022-07-29T16:05:16;29.10;59.70
4293;DHT22;2160;51.172;6.808;2022-07-29T16:07:43;29.10;59.10
4293;DHT22;2160;51.172;6.808;2022-07-29T16:10:10;29.10;58.70
4293;DHT22;2160;51.172;6.808;2022-07-29T16:12:37;29.20;59.00
4293;DHT22;2160;51.172;6.808;2022-07-29T16:15:05;29.40;58.40
4293;DHT22;2160;51.172;6.808;2022-07-29T16:17:35;29.40;58.80
4293;DHT22;2160;51.172;6.808;2022-07-29T16:20:03;29.50;58.90
4293;DHT22;2160;51.172;6.808;2022-07-29T16:22:31;29.50;58.90
4293;DHT22;2160;51.172;6.808;2022-07-29T16:24:58;29.50;59.10
4293;DHT22;2160;51.172;6.808;2022-07-29T16:27:25;29.50;60.20
4293;DHT22;2160;51.172;6.808;2022-07-29T16:29:52;29.40;59.90
4293;DHT22;2160;51.172;6.808;2022-07-29T16:32:20;29.30;60.40
4293;DHT22;2160;51.172;6.808;2022-07-29T16:34:49;29.20;60.60
4293;DHT22;2160;51.172;6.808;2022-07-29T16:37:16;29.30;61.70
4293;DHT22;2160;51.172;6.808;2022-07-29T16:39:43;29.20;60.90
4293;DHT22;2160;51.172;6.808;2022-07-29T16:42:10;29.10;62.10
4293;DHT22;2160;51.172;6.808;2022-07-29T16:44:37;29.00;62.20
4293;DHT22;2160;51.172;6.808;2022-07-29T16:47:04;29.00;62.30
4293;DHT22;2160;51.172;6.808;2022-07-29T16:49:30;28.80;62.30
4293;DHT22;2160;51.172;6.808;2022-07-29T16:51:59;28.70;63.30
4293;DHT22;2160;51.172;6.808;2022-07-29T16:54:26;28.70;64.10
4293;DHT22;2160;51.172;6.808;2022-07-29T16:56:53;28.60;64.30
4293;DHT22;2160;51.172;6.808;2022-07-29T16:59:20;28.60;64.30
4293;DHT22;2160;51.172;6.808;2022-07-29T17:01:47;28.60;64.90
4293;DHT22;2160;51.172;6.808;2022-07-29T17:04:14;28.70;65.00
4293;DHT22;2160;51.172;6.808;2022-07-29T17:06:41;28.80;65.00
4293;DHT22;2160;51.172;6.808;2022-07-29T17:09:10;28.60;65.30
4293;DHT22;2160;51.172;6.808;2022-07-29T17:11:40;28.50;65.10
4293;DHT22;2160;51.172;6.808;2022-07-29T17:14:07;28.50;65.70
4293;DHT22;2160;51.172;6.808;2022-07-29T17:16:35;28.60;66.20
4293;DHT22;2160;51.172;6.808;2022-07-29T17:19:01;28.70;66.40
4293;DHT22;2160;51.172;6.808;2022-07-29T17:21:29;28.70;66.30
4293;DHT22;2160;51.172;6.808;2022-07-29T17:23:55;28.70;66.50
4293;DHT22;2160;51.172;6.808;2022-07-29T17:26:25;28.60;66.90
4293;DHT22;2160;51.172;6.808;2022-07-29T17:28:53;28.40;67.70
4293;DHT22;2160;51.172;6.808;2022-07-29T17:31:20;28.40;67.30
4293;DHT22;2160;51.172;6.808;2022-07-29T17:33:47;28.40;67.10
4293;DHT22;2160;51.172;6.808;2022-07-29T17:36:14;28.40;66.60
4293;DHT22;2160;51.172;6.808;2022-07-29T17:38:50;28.40;66.60
4293;DHT22;2160;51.172;6.808;2022-07-29T17:41:17;28.50;67.30
4293;DHT22;2160;51.172;6.808;2022-07-29T17:43:45;28.70;68.20
4293;DHT22;2160;51.172;6.808;2022-07-29T17:46:12;28.90;66.10
4293;DHT22;2160;51.172;6.808;2022-07-29T17:48:39;28.90;64.90
4293;DHT22;2160;51.172;6.808;2022-07-29T17:51:06;28.90;65.40
4293;DHT22;2160;51.172;6.808;2022-07-29T17:53:34;29.20;65.70
4293;DHT22;2160;51.172;6.808;2022-07-29T17:56:01;29.30;66.10
4293;DHT22;2160;51.172;6.808;2022-07-29T17:58:28;29.40;65.20
4293;DHT22;2160;51.172;6.808;2022-07-29T18:00:57;29.40;63.70
4293;DHT22;2160;51.172;6.808;2022-07-29T18:03:24;29.30;64.80
4293;DHT22;2160;51.172;6.808;2022-07-29T18:05:51;29.20;65.30
4293;DHT22;2160;51.172;6.808;2022-07-29T18:08:19;29.10;65.40
4293;DHT22;2160;51.172;6.808;2022-07-29T18:10:46;29.10;64.80
4293;DHT22;2160;51.172;6.808;2022-07-29T18:13:13;29.00;64.70
4293;DHT22;2160;51.172;6.808;2022-07-29T18:15:41;28.80;65.10
4293;DHT22;2160;51.172;6.808;2022-07-29T18:18:11;28.70;65.00
4293;DHT22;2160;51.172;6.808;2022-07-29T18:20:38;28.70;65.10
4293;DHT22;2160;51.172;6.808;2022-07-29T18:23:06;28.50;65.80
4293;DHT22;2160;51.172;6.808;2022-07-29T18:25:33;28.40;65.30
4293;DHT22;2160;51.172;6.808;2022-07-29T18:28:00;28.20;66.90
4293;DHT22;2160;51.172;6.808;2022-07-29T18:30:27;28.00;67.60
4293;DHT22;2160;51.172;6.808;2022-07-29T18:32:55;28.00;67.80
4293;DHT22;2160;51.172;6.808;2022-07-29T18:35:23;28.10;67.30
4293;DHT22;2160;51.172;6.808;2022-07-29T18:37:50;28.10;67.30
4293;DHT22;2160;51.172;6.808;2022-07-29T18:40:19;28.10;67.20
4293;DHT22;2160;51.172;6.808;2022-07-29T18:42:48;28.20;68.00
4293;DHT22;2160;51.172;6.808;2022-07-29T18:45:15;28.20;69.60
4293;DHT22;2160;51.172;6.808;2022-07-29T18:47:42;28.20;70.50
4293;DHT22;2160;51.172;6.808;2022-07-29T18:50:09;28.10;71.30
4293;DHT22;2160;51.172;6.808;2022-07-29T18:52:38;28.20;70.00
4293;DHT22;2160;51.172;6.808;2022-07-29T18:55:06;28.20;70.40
4293;DHT22;2160;51.172;6.808;2022-07-29T18:57:33;28.10;70.40
4293;DHT22;2160;51.172;6.808;2022-07-29T19:00:00;28.10;71.80
4293;DHT22;2160;51.172;6.808;2022-07-29T19:02:27;27.90;71.20
4293;DHT22;2160;51.172;6.808;2022-07-29T19:04:54;27.70;70.50
4293;DHT22;2160;51.172;6.808;2022-07-29T19:07:21;27.70;69.00
4293;DHT22;2160;51.172;6.808;2022-07-29T19:09:51;27.70;70.30
4293;DHT22;2160;51.172;6.808;2022-07-29T19:12:18;27.70;71.20
4293;DHT22;2160;51.172;6.808;2022-07-29T19:14:45;27.70;72.10
4293;DHT22;2160;51.172;6.808;2022-07-29T19:17:12;27.70;72.70
4293;DHT22;2160;51.172;6.808;2022-07-29T19:19:39;27.80;72.80
4293;DHT22;2160;51.172;6.808;2022-07-29T19:22:10;27.80;74.40
4293;DHT22;2160;51.172;6.808;2022-07-29T19:24:37;27.70;74.80
4293;DHT22;2160;51.172;6.808;2022-07-29T19:27:06;27.70;75.60
4293;DHT22;2160;51.172;6.808;2022-07-29T19:29:32;27.60;75.30
4293;DHT22;2160;51.172;6.808;2022-07-29T19:31:59;27.50;76.00
4293;DHT22;2160;51.172;6.808;2022-07-29T19:34:27;27.40;76.10
4293;DHT22;2160;51.172;6.808;2022-07-29T19:36:54;27.40;76.30
4293;DHT22;2160;51.172;6.808;2022-07-29T19:39:20;27.30;76.40
4293;DHT22;2160;51.172;6.808;2022-07-29T19:41:47;27.30;77.60
4293;DHT22;2160;51.172;6.808;2022-07-29T19:44:16;27.10;77.60
4293;DHT22;2160;51.172;6.808;2022-07-29T19:46:43;27.00;78.10
4293;DHT22;2160;51.172;6.808;2022-07-29T19:49:10;26.90;78.50
4293;DHT22;2160;51.172;6.808;2022-07-29T19:51:38;26.90;78.80
4293;DHT22;2160;51.172;6.808;2022-07-29T19:54:06;26.70;78.90
4293;DHT22;2160;51.172;6.808;2022-07-29T19:56:33;26.60;79.50
4293;DHT22;2160;51.172;6.808;2022-07-29T19:59:00;26.60;80.10
4293;DHT22;2160;51.172;6.808;2022-07-29T20:01:28;26.50;80.50
4293;DHT22;2160;51.172;6.808;2022-07-29T20:03:56;26.40;81.10
4293;DHT22;2160;51.172;6.808;2022-07-29T20:06:23;26.40;81.40
4293;DHT22;2160;51.172;6.808;2022-07-29T20:08:51;26.30;81.70
4293;DHT22;2160;51.172;6.808;2022-07-29T20:11:18;26.20;82.20
4293;DHT22;2160;51.172;6.808;2022-07-29T20:13:45;26.10;82.90
4293;DHT22;2160;51.172;6.808;2022-07-29T20:16:12;26.00;83.30
4293;DHT22;2160;51.172;6.808;2022-07-29T20:18:40;26.00;83.60
4293;DHT22;2160;51.172;6.808;2022-07-29T20:21:07;25.80;84.40
4293;DHT22;2160;51.172;6.808;2022-07-29T20:23:34;25.80;85.50
4293;DHT22;2160;51.172;6.808;2022-07-29T20:26:02;25.90;85.70
4293;DHT22;2160;51.172;6.808;2022-07-29T20:28:29;25.80;86.00
4293;DHT22;2160;51.172;6.808;2022-07-29T20:30:55;25.80;86.40